Kurashiki, Japan
Current Conditions -  °F | °C
As of 9:00 PM on Monday 20 Oct 2014 (Local Time) from RJOB Reporting Station
Haze Haze  
Wind Chill: 61°   Ceiling: 1000
Heat Index: 61°   Visibility: 2.5mi
Dew Point: 61°   Wind: 3mph
Humidity: 100%   Direction: 100°E
Pressure: 30.12"   Gusts: NA
Location:  34.61°N, 133.77°E
Report Text: RJOB 201200Z 10003KT 4000 BR FEW003 SCT006 BKN010 16/16 Q1020
Loading
Personal Weather Stations






























Interactive Weather Map
Tropical Storm Tracking
New forecast layout! Learn more

10-Day Weather Forecast

Advertisements
Track Severe Weather on mobile